createdAt,value
2017-04-11T00:00:11.594Z,1.78
2017-04-11T00:01:10.781Z,2.20
2017-04-11T00:02:09.973Z,2.17
2017-04-11T00:03:09.155Z,1.25
2017-04-11T00:04:08.324Z,2.43
2017-04-11T00:05:08.248Z,2.22
2017-04-11T00:06:07.473Z,2.57
2017-04-11T00:07:06.656Z,1.28
2017-04-11T00:08:05.866Z,2.02
2017-04-11T00:09:05.820Z,2.48
2017-04-11T00:10:05.756Z,1.87
2017-04-11T00:11:04.928Z,2.58
2017-04-11T00:12:04.201Z,2.37
2017-04-11T00:13:03.379Z,2.78
2017-04-11T00:14:02.607Z,2.10
2017-04-11T00:15:02.579Z,2.58
2017-04-11T00:16:01.740Z,1.95
2017-04-11T00:17:00.948Z,2.43
2017-04-11T00:18:00.125Z,2.18
2017-04-11T00:18:59.347Z,2.98
2017-04-11T00:19:59.311Z,2.45
2017-04-11T00:20:58.546Z,2.28
2017-04-11T00:21:57.715Z,2.65
2017-04-11T00:22:56.900Z,2.37
2017-04-11T00:23:56.099Z,2.87
2017-04-11T00:24:55.288Z,2.10
2017-04-11T00:25:54.455Z,1.88
2017-04-11T00:26:53.685Z,2.85
2017-04-11T00:27:52.881Z,2.67
2017-04-11T00:28:52.057Z,2.45
2017-04-11T00:29:51.288Z,2.50
2017-04-11T00:30:50.480Z,2.08
2017-04-11T00:31:49.657Z,2.48
2017-04-11T00:32:48.877Z,1.73
2017-04-11T00:33:48.049Z,2.10
2017-04-11T00:34:47.225Z,2.30
2017-04-11T00:35:46.393Z,2.30
2017-04-11T00:36:45.585Z,2.43
2017-04-11T00:37:44.755Z,2.50
2017-04-11T00:38:43.954Z,1.63
2017-04-11T00:39:43.113Z,1.93
2017-04-11T00:40:42.276Z,2.08
2017-04-11T00:41:42.184Z,2.98
2017-04-11T00:42:41.340Z,2.18
2017-04-11T00:43:40.495Z,1.97
2017-04-11T00:44:39.912Z,2.50
2017-04-11T00:45:39.101Z,1.53
2017-04-11T00:46:38.281Z,1.68
2017-04-11T00:47:37.453Z,1.75
2017-04-11T00:48:36.645Z,2.13
2017-04-11T00:49:35.820Z,1.92
2017-04-11T00:50:35.020Z,2.12
2017-04-11T00:51:34.221Z,2.63
2017-04-11T00:52:33.399Z,2.28
2017-04-11T00:53:32.694Z,1.93
2017-04-11T00:54:31.860Z,1.77
2017-04-11T00:55:31.037Z,2.05
2017-04-11T00:56:30.231Z,1.73
2017-04-11T00:57:29.413Z,1.57
2017-04-11T00:58:28.601Z,1.77
2017-04-11T00:59:27.760Z,1.47
2017-04-11T01:00:27.006Z,1.90
2017-04-11T01:01:26.925Z,1.88
2017-04-11T01:02:26.117Z,2.03
2017-04-11T01:03:25.305Z,2.02
2017-04-11T01:04:24.474Z,1.75
2017-04-11T01:05:24.406Z,2.47
2017-04-11T01:06:23.567Z,1.60
2017-04-11T01:07:22.796Z,1.98
2017-04-11T01:08:22.064Z,1.97
2017-04-11T01:09:21.250Z,2.32
2017-04-11T01:10:20.431Z,2.95
2017-04-11T01:11:20.362Z,2.80
2017-04-11T01:12:19.553Z,2.43
2017-04-11T01:13:18.793Z,3.05
2017-04-11T01:14:18.277Z,2.77
2017-04-11T01:15:18.183Z,2.77
2017-04-11T01:16:18.135Z,3.35
2017-04-11T01:17:17.353Z,2.07
2017-04-11T01:18:16.531Z,2.97
2017-04-11T01:19:15.712Z,2.92
2017-04-11T01:20:14.903Z,2.52
2017-04-11T01:21:14.089Z,2.88
2017-04-11T01:22:13.260Z,2.07
2017-04-11T01:23:12.460Z,2.83
2017-04-11T01:24:11.691Z,3.00
2017-04-11T01:25:10.886Z,2.83
2017-04-11T01:26:10.085Z,2.87
2017-04-11T01:27:09.273Z,3.50
2017-04-11T01:28:08.436Z,2.03
2017-04-11T01:29:07.596Z,1.85
2017-04-11T01:30:06.845Z,1.98
2017-04-11T01:31:06.071Z,1.93
2017-04-11T01:32:05.541Z,2.67
2017-04-11T01:33:04.718Z,2.73
2017-04-11T01:34:04.696Z,3.98
2017-04-11T01:35:03.881Z,2.48
2017-04-11T01:36:03.065Z,2.43
2017-04-11T01:37:02.224Z,3.42
2017-04-11T01:38:01.431Z,2.83
2017-04-11T01:39:00.592Z,2.48
2017-04-11T01:39:59.768Z,2.13
2017-04-11T01:40:58.928Z,1.70
2017-04-11T01:41:58.092Z,2.10
2017-04-11T01:42:57.277Z,2.73
2017-04-11T01:43:56.466Z,2.13
2017-04-11T01:44:55.668Z,2.53
2017-04-11T01:45:54.862Z,2.63
2017-04-11T01:46:54.032Z,2.23
2017-04-11T01:47:53.201Z,3.13
2017-04-11T01:48:52.385Z,2.72
2017-04-11T01:49:51.587Z,2.68
2017-04-11T01:50:50.816Z,2.10
2017-04-11T01:51:49.999Z,2.07
2017-04-11T01:52:49.166Z,2.33
2017-04-11T01:53:48.337Z,2.00
2017-04-11T01:54:47.501Z,2.78
2017-04-11T01:55:46.711Z,2.27
2017-04-11T01:56:45.891Z,2.23
2017-04-11T01:57:45.085Z,2.93
2017-04-11T01:58:44.260Z,2.78
2017-04-11T01:59:43.461Z,2.07
2017-04-11T02:00:42.656Z,2.03
2017-04-11T02:01:42.178Z,2.48
2017-04-11T02:02:41.381Z,2.38
2017-04-11T02:03:40.557Z,2.37
2017-04-11T02:04:39.724Z,2.22
2017-04-11T02:05:38.925Z,2.93
2017-04-11T02:06:38.089Z,2.80
2017-04-11T02:07:37.311Z,3.58
2017-04-11T02:08:36.518Z,2.37
2017-04-11T02:09:35.693Z,2.55
2017-04-11T02:10:34.859Z,2.10
2017-04-11T02:11:34.268Z,2.72
2017-04-11T02:12:33.439Z,2.02
2017-04-11T02:13:32.636Z,2.47
2017-04-11T02:14:31.795Z,2.98
2017-04-11T02:15:31.704Z,2.00
2017-04-11T02:16:31.672Z,1.95
2017-04-11T02:17:31.624Z,2.05
2017-04-11T02:18:30.876Z,1.77
2017-04-11T02:19:31.042Z,1.97
2017-04-11T02:20:30.221Z,2.38
2017-04-11T02:21:29.397Z,2.45
2017-04-11T02:22:28.568Z,2.27
2017-04-11T02:23:27.741Z,2.20
2017-04-11T02:24:27.651Z,2.35
2017-04-11T02:25:26.884Z,2.50
2017-04-11T02:26:26.078Z,1.65
2017-04-11T02:27:25.242Z,1.78
2017-04-11T02:28:24.408Z,2.60
2017-04-11T02:29:23.580Z,2.27
2017-04-11T02:30:22.749Z,2.70
2017-04-11T02:31:21.981Z,2.18
2017-04-11T02:32:21.157Z,2.32
2017-04-11T02:33:20.356Z,1.98
2017-04-11T02:34:19.528Z,2.20
2017-04-11T02:35:18.701Z,2.25
2017-04-11T02:36:17.896Z,2.60
2017-04-11T02:37:17.121Z,2.15
2017-04-11T02:38:17.064Z,2.27
2017-04-11T02:39:16.252Z,2.15
2017-04-11T02:40:15.461Z,2.83
2017-04-11T02:41:14.631Z,1.82
2017-04-11T02:42:13.820Z,2.17
2017-04-11T02:43:13.023Z,2.27
2017-04-11T02:44:12.198Z,2.85
2017-04-11T02:45:11.361Z,2.15
2017-04-11T02:46:10.564Z,2.72
2017-04-11T02:47:09.727Z,2.57
2017-04-11T02:48:08.912Z,1.92
2017-04-11T02:49:08.087Z,2.85
2017-04-11T02:50:07.259Z,3.22
2017-04-11T02:51:06.416Z,2.05
2017-04-11T02:52:06.370Z,2.20
2017-04-11T02:53:05.581Z,2.65
2017-04-11T02:54:04.754Z,2.22
2017-04-11T02:55:04.023Z,3.78
2017-04-11T02:56:03.186Z,3.08
2017-04-11T02:57:02.356Z,2.08
2017-04-11T02:58:01.511Z,2.37
2017-04-11T02:59:00.759Z,2.45
2017-04-11T03:00:00.680Z,2.25
2017-04-11T03:00:59.886Z,2.63
2017-04-11T03:01:59.055Z,2.43
2017-04-11T03:02:58.246Z,2.75
2017-04-11T03:03:58.185Z,2.07
2017-04-11T03:04:57.353Z,1.75
2017-04-11T03:05:56.529Z,1.83
2017-04-11T03:06:55.977Z,1.97
2017-04-11T03:07:55.159Z,2.10
2017-04-11T03:08:54.336Z,2.58
2017-04-11T03:09:53.517Z,2.15
2017-04-11T03:10:53.424Z,1.98
2017-04-11T03:11:52.606Z,2.02
2017-04-11T03:12:51.779Z,2.47
2017-04-11T03:13:50.939Z,1.82
2017-04-11T03:14:50.139Z,2.00
2017-04-11T03:15:50.059Z,1.97
2017-04-11T03:16:49.224Z,2.03
2017-04-11T03:17:48.406Z,1.80
2017-04-11T03:18:47.587Z,1.90
2017-04-11T03:19:46.743Z,1.87
2017-04-11T03:20:45.932Z,1.93
2017-04-11T03:21:45.104Z,1.50
2017-04-11T03:22:44.275Z,2.10
2017-04-11T03:23:44.188Z,1.87
2017-04-11T03:24:44.101Z,2.33
2017-04-11T03:25:43.387Z,2.50
2017-04-11T03:26:42.544Z,1.70
2017-04-11T03:27:41.695Z,1.82
2017-04-11T03:28:40.860Z,1.85
2017-04-11T03:29:40.017Z,2.17
2017-04-11T03:30:39.198Z,2.82
2017-04-11T03:31:39.148Z,1.93
2017-04-11T03:32:38.310Z,2.20
2017-04-11T03:33:38.217Z,2.82
2017-04-11T03:34:38.176Z,1.33
2017-04-11T03:35:37.356Z,2.40
2017-04-11T03:36:36.527Z,2.52
2017-04-11T03:37:36.488Z,2.78
2017-04-11T03:38:35.650Z,2.00
2017-04-11T03:39:34.796Z,2.63
2017-04-11T03:40:33.962Z,1.83
2017-04-11T03:41:33.129Z,2.10
2017-04-11T03:42:32.308Z,2.07
2017-04-11T03:43:31.461Z,1.68
2017-04-11T03:44:30.629Z,1.60
2017-04-11T03:45:30.081Z,1.53
2017-04-11T03:46:29.244Z,2.07
2017-04-11T03:47:29.225Z,1.33
2017-04-11T03:48:28.426Z,2.50
2017-04-11T03:49:27.630Z,1.77
2017-04-11T03:50:27.550Z,2.42
2017-04-11T03:51:26.714Z,1.53
2017-04-11T03:52:25.891Z,2.27
2017-04-11T03:53:25.093Z,2.15
2017-04-11T03:54:24.266Z,1.80
2017-04-11T03:55:23.438Z,2.18
2017-04-11T03:56:23.363Z,1.85
2017-04-11T03:57:22.542Z,1.70
2017-04-11T03:58:21.744Z,2.15
2017-04-11T03:59:20.959Z,2.70
2017-04-11T04:00:20.127Z,2.02
2017-04-11T04:01:19.312Z,2.10
2017-04-11T04:02:18.481Z,2.28
2017-04-11T04:03:18.383Z,1.72
2017-04-11T04:04:17.604Z,1.72
2017-04-11T04:05:16.780Z,2.38
2017-04-11T04:06:15.960Z,1.68
2017-04-11T04:07:15.137Z,1.83
2017-04-11T04:08:14.316Z,2.68
2017-04-11T04:09:14.618Z,1.40
2017-04-11T04:10:13.796Z,1.98
2017-04-11T04:11:13.005Z,2.27
2017-04-11T04:12:12.177Z,1.63
2017-04-11T04:13:11.353Z,2.37
2017-04-11T04:14:10.524Z,1.33
2017-04-11T04:15:10.008Z,1.67
2017-04-11T04:16:09.173Z,1.63
2017-04-11T04:17:08.362Z,1.58
2017-04-11T04:18:07.588Z,1.57
2017-04-11T04:19:06.775Z,2.02
2017-04-11T04:20:05.988Z,2.07
2017-04-11T04:21:05.164Z,1.82
2017-04-11T04:22:05.088Z,2.55
2017-04-11T04:23:04.251Z,1.48
2017-04-11T04:24:03.432Z,2.13
2017-04-11T04:25:02.607Z,1.33
2017-04-11T04:26:02.420Z,1.25
2017-04-11T04:27:01.608Z,2.47
2017-04-11T04:28:00.788Z,1.50
2017-04-11T04:28:59.973Z,1.62
2017-04-11T04:29:59.156Z,1.87
2017-04-11T04:30:58.358Z,1.55
2017-04-11T04:31:57.550Z,1.98
2017-04-11T04:32:56.720Z,1.73
2017-04-11T04:33:56.643Z,1.48
2017-04-11T04:34:55.816Z,1.97
2017-04-11T04:35:54.992Z,2.83
2017-04-11T04:36:54.217Z,2.23
2017-04-11T04:37:53.399Z,1.47
2017-04-11T04:38:52.575Z,1.55
2017-04-11T04:39:51.755Z,2.13
2017-04-11T04:40:50.932Z,2.13
2017-04-11T04:41:50.127Z,1.77
2017-04-11T04:42:49.304Z,1.87
2017-04-11T04:43:48.503Z,2.22
2017-04-11T04:44:47.699Z,1.48
2017-04-11T04:45:46.895Z,2.18
2017-04-11T04:46:46.086Z,1.67
2017-04-11T04:47:45.299Z,2.23
2017-04-11T04:48:44.470Z,2.07
2017-04-11T04:49:43.656Z,2.70
2017-04-11T04:50:42.835Z,2.02
2017-04-11T04:51:41.997Z,2.20
2017-04-11T04:52:41.491Z,1.43
2017-04-11T04:53:40.657Z,1.75
2017-04-11T04:54:39.834Z,2.20
2017-04-11T04:55:39.060Z,1.72
2017-04-11T04:56:38.241Z,2.27
2017-04-11T04:57:37.423Z,1.92
2017-04-11T04:58:36.621Z,2.08
2017-04-11T04:59:35.792Z,2.07
2017-04-11T05:00:35.016Z,2.10
2017-04-11T05:01:34.270Z,2.10
2017-04-11T05:02:33.444Z,1.77
2017-04-11T05:03:32.649Z,1.67
2017-04-11T05:04:32.012Z,1.67
2017-04-11T05:05:31.952Z,2.03
2017-04-11T05:06:31.137Z,1.80
2017-04-11T05:07:30.428Z,1.97
2017-04-11T05:08:29.625Z,2.35
2017-04-11T05:09:28.813Z,2.03
2017-04-11T05:10:28.012Z,1.95
2017-04-11T05:11:27.181Z,1.48
2017-04-11T05:12:26.347Z,2.37
2017-04-11T05:13:25.543Z,1.77
2017-04-11T05:14:24.752Z,1.60
2017-04-11T05:15:23.912Z,1.50
2017-04-11T05:16:23.084Z,1.93
2017-04-11T05:17:22.248Z,1.40
2017-04-11T05:18:22.160Z,1.97
2017-04-11T05:19:21.453Z,1.85
2017-04-11T05:20:20.637Z,1.82
2017-04-11T05:21:19.808Z,1.78
2017-04-11T05:22:18.996Z,1.42
2017-04-11T05:23:18.172Z,2.60
2017-04-11T05:24:17.351Z,2.60
2017-04-11T05:25:16.628Z,1.80
2017-04-11T05:26:16.544Z,2.65
2017-04-11T05:27:15.707Z,3.33
2017-04-11T05:28:14.880Z,2.05
2017-04-11T05:29:14.061Z,1.85
2017-04-11T05:30:13.232Z,1.90
2017-04-11T05:31:12.428Z,2.15
2017-04-11T05:32:11.604Z,1.70
2017-04-11T05:33:10.769Z,1.38
2017-04-11T05:34:09.944Z,1.55
2017-04-11T05:35:09.132Z,1.95
2017-04-11T05:36:08.345Z,1.78
2017-04-11T05:37:07.532Z,2.43
2017-04-11T05:38:06.708Z,2.43
2017-04-11T05:39:06.006Z,2.67
2017-04-11T05:40:05.205Z,2.25
2017-04-11T05:41:04.388Z,2.27
2017-04-11T05:42:03.581Z,2.38
2017-04-11T05:43:03.487Z,2.07
2017-04-11T05:44:02.662Z,2.18
2017-04-11T05:45:01.841Z,2.38
2017-04-11T05:46:01.044Z,2.43
2017-04-11T05:47:00.245Z,4.28
2017-04-11T05:47:59.408Z,3.82
2017-04-11T05:48:58.597Z,4.43
2017-04-11T05:49:57.774Z,4.65
2017-04-11T05:50:56.965Z,10.17
2017-04-11T05:51:56.143Z,4.68
2017-04-11T05:52:55.354Z,4.63
2017-04-11T05:53:54.551Z,4.05
2017-04-11T05:54:53.721Z,3.90
2017-04-11T05:55:52.911Z,5.37
2017-04-11T05:56:52.088Z,5.40
2017-04-11T05:57:51.293Z,5.17
2017-04-11T05:58:50.471Z,4.55
2017-04-11T05:59:49.657Z,4.30
2017-04-11T06:00:48.852Z,3.87
2017-04-11T06:01:48.053Z,4.32
2017-04-11T06:02:47.249Z,3.05
2017-04-11T06:03:46.515Z,4.07
2017-04-11T06:04:45.695Z,5.47
2017-04-11T06:05:44.919Z,6.02
2017-04-11T06:06:44.106Z,8.40
2017-04-11T06:07:43.291Z,6.30
2017-04-11T06:08:42.496Z,5.50
2017-04-11T06:09:41.712Z,7.38
2017-04-11T06:10:40.894Z,27.88
2017-04-11T06:11:40.097Z,14.18
2017-04-11T06:12:39.273Z,13.10
2017-04-11T06:13:38.456Z,10.22
2017-04-11T06:14:37.656Z,14.08
2017-04-11T06:15:36.833Z,13.57
2017-04-11T06:16:36.000Z,9.72
2017-04-11T06:17:35.180Z,6.92
2017-04-11T06:18:34.401Z,4.60
2017-04-11T06:19:33.613Z,4.77
2017-04-11T06:20:33.524Z,4.57
2017-04-11T06:21:32.700Z,6.58
2017-04-11T06:22:31.873Z,5.82
2017-04-11T06:23:31.097Z,6.18
2017-04-11T06:24:30.282Z,6.55
2017-04-11T06:25:29.502Z,7.83
2017-04-11T06:26:29.420Z,8.12
2017-04-11T06:27:28.608Z,5.38
2017-04-11T06:28:27.803Z,5.27
2017-04-11T06:29:27.015Z,4.85
2017-04-11T06:30:26.964Z,4.72
2017-04-11T06:31:26.128Z,4.80
2017-04-11T06:32:25.304Z,3.28
2017-04-11T06:33:24.549Z,4.85
2017-04-11T06:34:24.007Z,3.52
2017-04-11T06:35:23.183Z,3.37
2017-04-11T06:36:22.391Z,3.47
2017-04-11T06:37:21.576Z,2.63
2017-04-11T06:38:20.748Z,2.47
2017-04-11T06:39:19.924Z,2.35
2017-04-11T06:40:19.093Z,2.58
2017-04-11T06:41:18.296Z,3.05
2017-04-11T06:42:17.479Z,3.30
2017-04-11T06:43:16.661Z,1.77
2017-04-11T06:44:15.844Z,2.52
2017-04-11T06:45:15.026Z,4.15
2017-04-11T06:46:14.943Z,2.35
2017-04-11T06:47:14.265Z,3.33
2017-04-11T06:48:13.437Z,2.43
2017-04-11T06:49:12.597Z,2.25
2017-04-11T06:50:12.508Z,1.42
2017-04-11T06:51:11.672Z,2.10
2017-04-11T06:52:10.853Z,1.78
2017-04-11T06:53:10.000Z,1.77
2017-04-11T06:54:09.153Z,1.10
2017-04-11T06:55:08.308Z,1.75
2017-04-11T06:56:07.465Z,2.70
2017-04-11T06:57:06.620Z,1.52
2017-04-11T06:58:05.801Z,1.05
2017-04-11T06:59:04.974Z,1.87
2017-04-11T07:00:04.192Z,1.38
2017-04-11T07:01:03.382Z,1.52
2017-04-11T07:02:02.546Z,1.37
2017-04-11T07:03:01.748Z,1.42
2017-04-11T07:04:00.924Z,1.15
2017-04-11T07:05:00.084Z,1.65
2017-04-11T07:05:59.232Z,1.65
2017-04-11T07:06:58.394Z,1.65
2017-04-11T07:07:57.553Z,1.18
2017-04-11T07:08:56.709Z,1.50
2017-04-11T07:09:55.893Z,3.43
2017-04-11T07:10:55.053Z,4.05
2017-04-11T07:11:54.207Z,3.25
2017-04-11T07:12:53.347Z,2.07
2017-04-11T07:13:52.517Z,2.25
2017-04-11T07:14:51.664Z,2.05
2017-04-11T07:15:50.849Z,1.60
2017-04-11T07:16:50.004Z,1.30
2017-04-11T07:17:49.177Z,1.80
2017-04-11T07:18:48.337Z,1.40
2017-04-11T07:19:47.520Z,3.20
2017-04-11T07:20:46.696Z,2.33
2017-04-11T07:21:45.888Z,1.87
2017-04-11T07:22:45.053Z,1.33
2017-04-11T07:23:44.955Z,1.32
2017-04-11T07:24:44.137Z,1.80
2017-04-11T07:25:43.331Z,1.62
2017-04-11T07:26:42.497Z,1.58
2017-04-11T07:27:41.951Z,1.27
2017-04-11T07:28:41.136Z,1.43
2017-04-11T07:29:40.308Z,1.20
2017-04-11T07:30:39.481Z,1.35
2017-04-11T07:31:38.638Z,1.52
2017-04-11T07:32:38.769Z,1.63
2017-04-11T07:33:37.972Z,1.85
2017-04-11T07:34:37.136Z,1.53
2017-04-11T07:35:37.050Z,1.15
2017-04-11T07:36:36.999Z,3.18
2017-04-11T07:37:36.169Z,1.65
2017-04-11T07:38:35.409Z,2.12
2017-04-11T07:39:34.559Z,1.60
2017-04-11T07:40:33.721Z,1.70
2017-04-11T07:41:32.884Z,1.28
2017-04-11T07:42:32.048Z,2.48
2017-04-11T07:43:31.222Z,1.82
2017-04-11T07:44:30.399Z,1.75
2017-04-11T07:45:29.565Z,1.57
2017-04-11T07:46:28.757Z,1.63
2017-04-11T07:47:27.908Z,1.82
2017-04-11T07:48:27.082Z,1.48
2017-04-11T07:49:27.065Z,1.65
2017-04-11T07:50:26.217Z,1.38
2017-04-11T07:51:25.387Z,1.40
2017-04-11T07:52:24.540Z,1.90
2017-04-11T07:53:24.443Z,1.27
2017-04-11T07:54:24.344Z,1.87
2017-04-11T07:55:23.520Z,1.52
2017-04-11T07:56:22.685Z,1.62
2017-04-11T07:57:21.845Z,1.60
2017-04-11T07:58:21.029Z,1.32
2017-04-11T07:59:20.207Z,1.40
2017-04-11T08:00:19.397Z,1.08
2017-04-11T08:01:18.610Z,1.28
2017-04-11T08:02:17.772Z,1.38
2017-04-11T08:03:16.937Z,1.23
2017-04-11T08:04:16.100Z,1.15
2017-04-11T08:05:15.265Z,1.60
2017-04-11T08:06:14.453Z,1.32
2017-04-11T08:07:13.611Z,1.28
2017-04-11T08:08:13.518Z,1.27
2017-04-11T08:09:12.665Z,1.78
2017-04-11T08:10:12.571Z,1.37
2017-04-11T08:11:12.517Z,1.48
2017-04-11T08:12:11.717Z,1.27
2017-04-11T08:13:10.868Z,1.80
2017-04-11T08:14:10.033Z,1.40
2017-04-11T08:15:09.232Z,1.62
2017-04-11T08:16:08.395Z,1.53
2017-04-11T08:17:07.574Z,1.33
2017-04-11T08:18:06.741Z,1.87
2017-04-11T08:19:05.892Z,2.52
2017-04-11T08:20:05.050Z,1.13
2017-04-11T08:21:04.269Z,1.02
2017-04-11T08:22:03.464Z,1.30
2017-04-11T08:23:02.621Z,2.40
2017-04-11T08:24:01.784Z,1.28
2017-04-11T08:25:00.948Z,1.92
2017-04-11T08:26:00.109Z,1.47
2017-04-11T08:26:59.272Z,1.65
2017-04-11T08:27:58.481Z,1.78
2017-04-11T08:28:57.669Z,1.52
2017-04-11T08:29:56.833Z,1.50
2017-04-11T08:30:56.068Z,2.12
2017-04-11T08:31:56.019Z,1.57
2017-04-11T08:32:55.217Z,1.48
2017-04-11T08:33:54.378Z,1.58
2017-04-11T08:34:53.538Z,1.28
2017-04-11T08:35:53.448Z,1.48
2017-04-11T08:36:52.599Z,1.88
2017-04-11T08:37:51.757Z,1.33
2017-04-11T08:38:50.990Z,1.48
2017-04-11T08:39:50.148Z,1.62
2017-04-11T08:40:49.617Z,1.77
2017-04-11T08:41:48.776Z,1.72
2017-04-11T08:42:47.939Z,1.68
2017-04-11T08:43:47.140Z,2.15
2017-04-11T08:44:46.300Z,2.58
2017-04-11T08:45:45.490Z,1.95
2017-04-11T08:46:44.681Z,1.82
2017-04-11T08:47:43.878Z,1.27
2017-04-11T08:48:43.041Z,1.63
2017-04-11T08:49:42.238Z,1.08
2017-04-11T08:50:41.385Z,1.95
2017-04-11T08:51:40.549Z,1.20
2017-04-11T08:52:39.761Z,1.82
2017-04-11T08:53:38.922Z,0.98
2017-04-11T08:54:38.109Z,1.23
2017-04-11T08:55:37.347Z,1.55
2017-04-11T08:56:36.528Z,1.82
2017-04-11T08:57:35.688Z,1.93
2017-04-11T08:58:34.849Z,1.97
2017-04-11T08:59:34.033Z,1.42
2017-04-11T09:00:33.210Z,1.93
2017-04-11T09:01:32.368Z,1.37
2017-04-11T09:02:31.783Z,1.50
2017-04-11T09:03:30.959Z,1.38
2017-04-11T09:04:30.204Z,2.30
2017-04-11T09:05:30.148Z,1.17
2017-04-11T09:06:29.333Z,1.53
2017-04-11T09:07:29.254Z,1.93
2017-04-11T09:08:27.639Z,1.57
2017-04-11T09:09:26.832Z,1.32
2017-04-11T09:10:26.029Z,1.73
2017-04-11T09:11:25.210Z,2.90
2017-04-11T09:12:24.373Z,1.50
2017-04-11T09:13:23.541Z,2.80
2017-04-11T09:14:22.708Z,1.58
2017-04-11T09:15:21.945Z,1.05
2017-04-11T09:16:21.173Z,1.15
2017-04-11T09:17:20.397Z,1.48
2017-04-11T09:18:19.564Z,1.72
2017-04-11T09:19:18.724Z,1.80
2017-04-11T09:20:17.897Z,2.07
2017-04-11T09:21:17.809Z,1.75
2017-04-11T09:22:17.008Z,1.45
2017-04-11T09:23:16.168Z,1.35
2017-04-11T09:24:16.075Z,2.00
2017-04-11T09:25:15.241Z,1.67
2017-04-11T09:26:14.420Z,2.00
2017-04-11T09:27:13.585Z,1.60
2017-04-11T09:28:12.896Z,1.50
2017-04-11T09:29:12.065Z,1.67
2017-04-11T09:30:11.242Z,2.23
2017-04-11T09:31:10.409Z,1.60
2017-04-11T09:32:09.584Z,1.18
2017-04-11T09:33:08.748Z,1.40
2017-04-11T09:34:07.926Z,1.70
2017-04-11T09:35:07.093Z,2.23
2017-04-11T09:36:06.249Z,2.42
2017-04-11T09:37:05.460Z,1.20
2017-04-11T09:38:04.632Z,1.67
2017-04-11T09:39:03.985Z,1.38
2017-04-11T09:40:03.176Z,1.17
2017-04-11T09:41:02.356Z,1.12
2017-04-11T09:42:01.533Z,1.38
2017-04-11T09:43:00.772Z,1.27
2017-04-11T09:43:59.952Z,1.17
2017-04-11T09:44:59.138Z,1.28
2017-04-11T09:45:58.381Z,2.12
2017-04-11T09:46:57.557Z,1.77
2017-04-11T09:47:56.741Z,1.80
2017-04-11T09:48:55.932Z,1.58
2017-04-11T09:49:55.110Z,1.97
2017-04-11T09:50:54.291Z,1.27
2017-04-11T09:51:53.500Z,1.48
2017-04-11T09:52:52.676Z,1.10
2017-04-11T09:53:52.611Z,1.18
2017-04-11T09:54:51.807Z,1.32
2017-04-11T09:55:50.988Z,1.42
2017-04-11T09:56:50.176Z,1.12
2017-04-11T09:57:49.405Z,1.43
2017-04-11T09:58:48.602Z,2.02
2017-04-11T09:59:47.804Z,1.75
2017-04-11T10:00:47.000Z,1.52
2017-04-11T10:01:46.193Z,1.58
2017-04-11T10:02:45.381Z,1.35
2017-04-11T10:03:44.589Z,1.78
2017-04-11T10:04:43.784Z,1.53
2017-04-11T10:05:42.955Z,1.43
2017-04-11T10:06:42.136Z,1.75
2017-04-11T10:07:41.359Z,1.32
2017-04-11T10:08:40.538Z,1.13
2017-04-11T10:09:39.773Z,1.47
2017-04-11T10:10:38.953Z,1.20
2017-04-11T10:11:38.881Z,0.87
2017-04-11T10:12:38.137Z,1.37
2017-04-11T10:13:37.337Z,1.28
2017-04-11T10:14:36.548Z,1.33
2017-04-11T10:15:35.729Z,1.70
2017-04-11T10:16:34.914Z,1.00
2017-04-11T10:17:34.814Z,1.10
2017-04-11T10:18:33.989Z,1.05
2017-04-11T10:19:33.259Z,0.78
2017-04-11T10:20:32.454Z,1.13
2017-04-11T10:21:31.639Z,1.13
2017-04-11T10:22:30.829Z,1.43
2017-04-11T10:23:30.004Z,1.47
2017-04-11T10:24:29.212Z,1.77
2017-04-11T10:25:28.472Z,1.63
2017-04-11T10:26:27.660Z,1.15
2017-04-11T10:27:26.841Z,1.12
2017-04-11T10:28:26.012Z,4.42
2017-04-11T10:29:25.180Z,1.48
2017-04-11T10:30:24.387Z,0.98
2017-04-11T10:31:23.605Z,1.57
2017-04-11T10:32:22.779Z,1.32
2017-04-11T10:33:21.957Z,1.13
2017-04-11T10:34:21.139Z,1.43
2017-04-11T10:35:20.315Z,1.48
2017-04-11T10:36:19.509Z,1.55
2017-04-11T10:37:18.705Z,1.80
2017-04-11T10:38:18.630Z,1.20
2017-04-11T10:39:17.817Z,1.25
2017-04-11T10:40:16.997Z,1.60
2017-04-11T10:41:16.180Z,1.12
2017-04-11T10:42:15.389Z,1.20
2017-04-11T10:43:14.611Z,1.27
2017-04-11T10:44:13.820Z,1.30
2017-04-11T10:45:13.004Z,1.65
2017-04-11T10:46:12.937Z,1.05
2017-04-11T10:47:12.103Z,2.37
2017-04-11T10:48:11.270Z,1.67
2017-04-11T10:49:10.453Z,1.13
2017-04-11T10:50:09.631Z,1.10
2017-04-11T10:51:08.826Z,1.75
2017-04-11T10:52:08.788Z,1.48
2017-04-11T10:53:07.972Z,1.33
2017-04-11T10:54:07.140Z,0.93
2017-04-11T10:55:06.563Z,1.50
2017-04-11T10:56:05.731Z,1.18
2017-04-11T10:57:04.953Z,1.30
2017-04-11T10:58:04.120Z,1.85
2017-04-11T10:59:03.276Z,2.35
2017-04-11T11:00:02.432Z,1.13
2017-04-11T11:01:01.621Z,1.07
2017-04-11T11:02:00.797Z,1.50
2017-04-11T11:02:59.948Z,1.27
2017-04-11T11:03:59.101Z,1.65
2017-04-11T11:04:58.264Z,1.15
2017-04-11T11:05:57.436Z,1.50
2017-04-11T11:06:56.624Z,1.18
2017-04-11T11:07:55.775Z,1.15
2017-04-11T11:08:54.944Z,1.15
2017-04-11T11:09:54.125Z,1.23
2017-04-11T11:10:53.305Z,1.30
2017-04-11T11:11:52.477Z,1.28
2017-04-11T11:12:51.672Z,1.20
2017-04-11T11:13:50.828Z,1.27
2017-04-11T11:14:50.767Z,1.90
2017-04-11T11:15:49.928Z,1.17
2017-04-11T11:16:49.844Z,1.52
2017-04-11T11:17:49.017Z,1.27
2017-04-11T11:18:48.972Z,1.82
2017-04-11T11:19:48.873Z,1.87
2017-04-11T11:20:48.032Z,1.72
2017-04-11T11:21:47.195Z,1.95
2017-04-11T11:22:47.109Z,2.58
2017-04-11T11:23:46.277Z,1.32
2017-04-11T11:24:46.207Z,2.30
2017-04-11T11:25:45.392Z,1.65
2017-04-11T11:26:44.549Z,1.63
2017-04-11T11:27:43.728Z,1.43
2017-04-11T11:28:42.895Z,1.43
2017-04-11T11:29:42.098Z,1.33
2017-04-11T11:30:41.283Z,0.92
2017-04-11T11:31:40.444Z,1.40
2017-04-11T11:32:39.591Z,1.82
2017-04-11T11:33:38.764Z,1.62
2017-04-11T11:34:37.941Z,1.70
2017-04-11T11:35:37.117Z,1.33
2017-04-11T11:36:36.309Z,2.07
2017-04-11T11:37:35.511Z,1.55
2017-04-11T11:38:34.668Z,1.73
2017-04-11T11:39:33.822Z,1.43
2017-04-11T11:40:33.002Z,1.60
2017-04-11T11:41:32.171Z,2.03
2017-04-11T11:42:31.365Z,1.67
2017-04-11T11:43:30.528Z,1.53
2017-04-11T11:44:29.717Z,1.02
2017-04-11T11:45:28.872Z,1.70
2017-04-11T11:46:28.097Z,1.48
2017-04-11T11:47:27.285Z,1.57
2017-04-11T11:48:27.209Z,2.12
2017-04-11T11:49:26.389Z,1.38
2017-04-11T11:50:26.295Z,1.10
2017-04-11T11:51:26.247Z,1.15
2017-04-11T11:52:26.146Z,1.13
2017-04-11T11:53:25.308Z,1.30
2017-04-11T11:54:24.508Z,0.98
2017-04-11T11:55:23.734Z,1.05
2017-04-11T11:56:22.902Z,1.28
2017-04-11T11:57:22.128Z,1.43
2017-04-11T11:58:21.311Z,2.37
2017-04-11T11:59:20.477Z,1.95
2017-04-11T12:00:20.739Z,4.30
2017-04-11T12:01:19.901Z,2.10
2017-04-11T12:02:19.077Z,3.72
2017-04-11T12:03:18.253Z,1.73
2017-04-11T12:04:17.409Z,2.13
2017-04-11T12:05:16.617Z,2.70
2017-04-11T12:06:16.572Z,2.25
2017-04-11T12:07:15.729Z,2.95
2017-04-11T12:08:14.893Z,1.13
2017-04-11T12:09:14.393Z,1.75
2017-04-11T12:10:13.564Z,2.08
2017-04-11T12:11:12.735Z,1.48
2017-04-11T12:12:11.978Z,1.48
2017-04-11T12:13:11.140Z,1.40
2017-04-11T12:14:10.301Z,1.20
2017-04-11T12:15:09.463Z,2.17
2017-04-11T12:16:08.677Z,1.23
2017-04-11T12:17:07.853Z,1.10
2017-04-11T12:18:07.049Z,1.05
2017-04-11T12:19:06.228Z,1.10
2017-04-11T12:20:05.400Z,1.90
2017-04-11T12:21:05.303Z,1.18
2017-04-11T12:22:05.236Z,1.98
2017-04-11T12:23:04.416Z,1.32
2017-04-11T12:24:03.660Z,1.47
2017-04-11T12:25:02.820Z,1.08
2017-04-11T12:26:01.984Z,1.52
2017-04-11T12:27:01.917Z,1.60
2017-04-11T12:28:01.077Z,1.90
2017-04-11T12:29:00.240Z,6.48
2017-04-11T12:29:59.429Z,2.35
2017-04-11T12:30:58.615Z,3.62
2017-04-11T12:31:57.817Z,10.22
2017-04-11T12:32:57.716Z,4.43
2017-04-11T12:33:57.617Z,3.75
2017-04-11T12:34:57.508Z,3.78
2017-04-11T12:35:56.694Z,6.75
2017-04-11T12:36:55.936Z,4.57
2017-04-11T12:37:55.096Z,4.13
2017-04-11T12:38:54.256Z,3.15
2017-04-11T12:39:53.409Z,2.03
2017-04-11T12:40:53.328Z,2.45
2017-04-11T12:41:52.518Z,1.97
2017-04-11T12:42:51.676Z,1.98
2017-04-11T12:43:50.839Z,2.48
2017-04-11T12:44:50.011Z,3.83
2017-04-11T12:45:49.204Z,2.67
2017-04-11T12:46:48.392Z,2.92
2017-04-11T12:47:47.589Z,3.23
2017-04-11T12:48:46.768Z,5.88
2017-04-11T12:49:45.949Z,5.73
2017-04-11T12:50:45.129Z,5.13
2017-04-11T12:51:44.320Z,11.03
2017-04-11T12:52:44.241Z,8.65
2017-04-11T12:53:43.452Z,13.00
2017-04-11T12:54:42.695Z,5.13
2017-04-11T12:55:41.924Z,3.35
2017-04-11T12:56:41.137Z,3.10
2017-04-11T12:57:40.317Z,2.63
2017-04-11T12:58:39.557Z,1.92
2017-04-11T12:59:38.777Z,18.57
2017-04-11T13:00:38.009Z,10.00
2017-04-11T13:01:37.942Z,7.40
2017-04-11T13:02:37.115Z,3.40
2017-04-11T13:03:36.321Z,16.07
2017-04-11T13:04:35.521Z,7.37
2017-04-11T13:05:35.477Z,8.02
2017-04-11T13:06:34.671Z,2.97
2017-04-11T13:07:33.880Z,1.60
2017-04-11T13:08:33.065Z,1.35